Time;durP1;ratioP1;P1;durP2;ratioP2;P2;SDS_P1;SDS_P2;PMS_P1;PMS_P2;Temp;Humidity;BMP_temperature;BMP_pressure;BME280_temperature;BME280_humidity;BME280_pressure;Samples;Min_cycle;Max_cycle;Signal;HPM_P1;HPM_P2
2023/08/15 00:01:06;;;;;;;7.70;6.93;;;20.40;99.90;;;;;;5027892;28;20068;-60
2023/08/15 00:03:32;;;;;;;9.20;8.30;;;20.40;99.90;;;;;;5029758;28;20030;-59
2023/08/15 00:05:58;;;;;;;8.68;7.10;;;20.40;99.90;;;;;;5027279;28;20025;-60
2023/08/15 00:08:24;;;;;;;7.95;7.22;;;20.40;99.90;;;;;;5028486;28;20090;-59
2023/08/15 00:10:49;;;;;;;7.88;7.15;;;20.40;99.90;;;;;;5025824;28;20117;-60
2023/08/15 00:13:15;;;;;;;7.72;6.57;;;20.40;99.90;;;;;;5027321;28;20026;-58
2023/08/15 00:15:41;;;;;;;7.25;6.65;;;20.30;99.90;;;;;;5028189;28;20091;-61
2023/08/15 00:18:07;;;;;;;7.97;6.70;;;20.30;99.90;;;;;;5029608;28;20028;-58
2023/08/15 00:20:32;;;;;;;8.40;7.68;;;20.40;99.90;;;;;;5028839;28;20108;-57
2023/08/15 00:22:58;;;;;;;8.50;7.78;;;20.40;99.90;;;;;;5026522;28;20033;-58
2023/08/15 00:25:24;;;;;;;8.20;7.40;;;20.30;99.90;;;;;;5030042;28;20453;-59
2023/08/15 00:27:52;;;;;;;7.95;7.28;;;20.30;99.90;;;;;;5028610;28;20440;-60
2023/08/15 00:30:18;;;;;;;8.82;8.05;;;20.40;99.90;;;;;;5027754;28;20033;-59
2023/08/15 00:32:43;;;;;;;9.02;8.13;;;20.40;99.90;;;;;;5028036;28;20367;-57
2023/08/15 00:35:11;;;;;;;8.15;7.40;;;20.40;99.90;;;;;;5023134;28;20651;-58
2023/08/15 00:37:40;;;;;;;9.98;8.18;;;20.40;99.90;;;;;;5031857;28;20128;-57
2023/08/15 00:40:06;;;;;;;8.88;8.18;;;20.40;99.90;;;;;;5022951;28;20115;-58
2023/08/15 00:42:31;;;;;;;9.18;8.50;;;20.40;99.90;;;;;;5023567;28;20030;-59
2023/08/15 00:44:57;;;;;;;10.02;8.93;;;20.40;99.90;;;;;;5027899;28;20037;-57
2023/08/15 00:47:23;;;;;;;15.30;9.85;;;20.40;99.90;;;;;;5027482;28;20032;-58
2023/08/15 00:49:50;;;;;;;10.07;9.10;;;20.40;99.90;;;;;;5031292;28;20410;-60
2023/08/15 00:52:17;;;;;;;9.35;7.50;;;20.40;99.90;;;;;;5029248;28;20397;-61
2023/08/15 00:54:48;;;;;;;9.20;8.43;;;20.50;99.90;;;;;;5030664;28;20030;-59
2023/08/15 00:57:15;;;;;;;9.77;8.23;;;20.40;99.90;;;;;;5032700;28;20115;-59
2023/08/15 00:59:45;;;;;;;8.02;7.43;;;20.40;99.90;;;;;;5036474;28;20630;-60
2023/08/15 01:02:11;;;;;;;9.02;8.25;;;20.30;99.90;;;;;;5021547;28;20038;-60
2023/08/15 01:04:38;;;;;;;8.90;8.07;;;20.20;99.90;;;;;;5021052;28;20524;-60
2023/08/15 01:07:04;;;;;;;10.60;9.75;;;20.20;99.90;;;;;;5024531;28;20172;-59
2023/08/15 01:09:30;;;;;;;9.80;8.95;;;20.20;99.90;;;;;;5012416;28;20105;-59
2023/08/15 01:12:07;;;;;;;8.75;8.05;;;20.10;99.90;;;;;;5026282;28;20474;-59
2023/08/15 01:14:58;;;;;;;8.98;8.27;;;20.10;99.90;;;;;;5023816;28;20072;-58
2023/08/15 01:17:34;;;;;;;7.50;6.90;;;20.00;99.90;;;;;;5030402;28;20034;-59
2023/08/15 01:20:14;;;;;;;8.98;8.35;;;20.00;99.90;;;;;;5027458;28;20580;-57
2023/08/15 01:22:44;;;;;;;9.07;8.15;;;20.00;99.90;;;;;;5030791;28;20033;-59
2023/08/15 01:25:10;;;;;;;8.93;8.13;;;20.00;99.90;;;;;;5028222;28;20068;-56
2023/08/15 01:27:35;;;;;;;8.80;8.10;;;20.00;99.90;;;;;;5030049;28;20522;-59
2023/08/15 01:30:01;;;;;;;9.88;9.18;;;20.00;99.90;;;;;;5025559;28;20362;-59
2023/08/15 01:32:33;;;;;;;10.15;9.25;;;19.90;99.90;;;;;;5033165;28;20010;-57
2023/08/15 01:35:13;;;;;;;11.70;9.85;;;19.90;99.90;;;;;;5028122;28;20029;-57
2023/08/15 01:37:47;;;;;;;10.57;9.80;;;20.00;99.90;;;;;;5031234;28;20034;-60
2023/08/15 01:40:16;;;;;;;8.82;7.95;;;19.90;99.90;;;;;;5033995;28;20057;-58
2023/08/15 01:42:43;;;;;;;6.88;6.38;;;19.80;99.90;;;;;;5033951;28;20029;-60
2023/08/15 01:45:11;;;;;;;7.72;7.22;;;19.70;99.90;;;;;;5033113;28;20033;-57
2023/08/15 01:47:37;;;;;;;6.90;6.40;;;19.60;99.90;;;;;;5026973;28;20021;-59
2023/08/15 01:50:03;;;;;;;7.50;6.60;;;19.60;99.90;;;;;;5028796;28;20033;-59
2023/08/15 01:52:31;;;;;;;7.38;6.72;;;19.50;99.90;;;;;;5031404;28;20079;-59
2023/08/15 01:54:57;;;;;;;7.57;6.97;;;19.50;99.90;;;;;;5033522;28;20400;-57
2023/08/15 01:57:23;;;;;;;7.95;7.03;;;19.50;99.90;;;;;;5031646;28;20026;-58
2023/08/15 01:59:48;;;;;;;8.70;8.00;;;19.40;99.90;;;;;;5033514;28;20017;-59
2023/08/15 02:02:14;;;;;;;7.10;6.50;;;19.40;99.90;;;;;;5036488;28;20052;-61
2023/08/15 02:04:39;;;;;;;7.45;6.85;;;19.40;99.90;;;;;;5037329;28;20021;-58
2023/08/15 02:07:05;;;;;;;7.68;6.97;;;19.30;99.90;;;;;;5030414;28;20784;-59
2023/08/15 02:09:31;;;;;;;8.13;7.53;;;19.40;99.90;;;;;;5028991;28;20109;-59
2023/08/15 02:11:56;;;;;;;7.63;7.00;;;19.30;99.90;;;;;;5031430;28;20051;-58
2023/08/15 02:14:22;;;;;;;9.18;8.13;;;19.30;99.90;;;;;;5033623;28;20014;-58
2023/08/15 02:16:47;;;;;;;8.18;7.47;;;19.30;99.90;;;;;;5033558;28;20061;-58
2023/08/15 02:19:13;;;;;;;9.98;9.18;;;19.30;99.90;;;;;;5033625;28;20441;-59
2023/08/15 02:21:39;;;;;;;8.27;7.57;;;19.30;99.90;;;;;;5034284;28;20375;-60
2023/08/15 02:24:05;;;;;;;10.05;8.57;;;19.30;99.90;;;;;;5032707;28;20037;-60
2023/08/15 02:26:30;;;;;;;9.55;8.75;;;19.20;99.90;;;;;;5030911;28;20022;-59
2023/08/15 02:28:56;;;;;;;8.23;7.57;;;19.20;99.90;;;;;;5033560;28;20053;-59
2023/08/15 02:31:22;;;;;;;7.72;6.90;;;19.20;99.90;;;;;;5030778;28;20026;-59
2023/08/15 02:33:48;;;;;;;10.90;7.13;;;19.20;99.90;;;;;;5020016;28;20040;-59
2023/08/15 02:36:13;;;;;;;8.32;7.00;;;19.20;99.90;;;;;;5034481;28;20040;-57
2023/08/15 02:38:39;;;;;;;8.88;8.13;;;19.10;99.90;;;;;;5030345;28;20149;-59
2023/08/15 02:41:04;;;;;;;8.27;7.47;;;19.20;99.90;;;;;;5025522;28;20037;-60
2023/08/15 02:43:30;;;;;;;11.65;10.48;;;19.20;99.90;;;;;;5020323;28;20026;-60
2023/08/15 02:45:56;;;;;;;10.18;9.35;;;19.20;99.90;;;;;;5028101;28;20087;-59
2023/08/15 02:48:21;;;;;;;10.90;9.52;;;19.20;99.90;;;;;;5031213;28;20096;-59
2023/08/15 02:50:47;;;;;;;9.50;8.70;;;19.20;99.90;;;;;;5026091;28;20585;-58
2023/08/15 02:53:12;;;;;;;8.90;8.23;;;19.30;99.90;;;;;;5029732;28;20939;-59
2023/08/15 02:55:38;;;;;;;12.13;10.13;;;19.30;99.90;;;;;;5028723;28;20035;-58
2023/08/15 02:58:04;;;;;;;10.07;9.20;;;19.30;99.90;;;;;;5025738;28;20815;-61
2023/08/15 03:00:30;;;;;;;10.10;9.15;;;19.30;99.90;;;;;;5028291;28;20052;-60
2023/08/15 03:02:55;;;;;;;11.55;10.45;;;19.20;99.90;;;;;;5029667;28;20033;-59
2023/08/15 03:05:21;;;;;;;9.90;8.88;;;19.30;99.90;;;;;;5026623;28;20593;-60
2023/08/15 03:07:47;;;;;;;8.95;8.10;;;19.20;99.90;;;;;;5028202;28;20037;-58
2023/08/15 03:10:12;;;;;;;9.20;8.50;;;19.20;99.90;;;;;;5026406;28;20070;-60
2023/08/15 03:12:38;;;;;;;11.45;10.50;;;19.20;99.90;;;;;;5027882;28;20030;-57
2023/08/15 03:15:04;;;;;;;10.27;8.95;;;19.20;99.90;;;;;;5027687;28;20432;-59
2023/08/15 03:17:32;;;;;;;9.15;8.25;;;19.10;99.90;;;;;;5029580;28;20026;-60
2023/08/15 03:19:58;;;;;;;9.05;8.25;;;19.10;99.90;;;;;;5032301;28;20647;-58
2023/08/15 03:22:23;;;;;;;10.73;7.55;;;19.10;99.90;;;;;;5032471;28;20029;-59
2023/08/15 03:24:49;;;;;;;10.02;8.90;;;19.10;99.90;;;;;;5031178;28;20112;-60
2023/08/15 03:27:14;;;;;;;9.43;8.73;;;19.00;99.90;;;;;;5029654;28;20025;-58
2023/08/15 03:29:40;;;;;;;9.43;8.60;;;19.00;99.90;;;;;;5033215;28;20745;-58
2023/08/15 03:32:06;;;;;;;9.60;8.25;;;19.00;99.90;;;;;;5025470;28;20029;-59
2023/08/15 03:34:31;;;;;;;9.63;8.75;;;19.00;99.90;;;;;;5023519;28;20490;-59
2023/08/15 03:36:57;;;;;;;10.88;8.82;;;18.90;99.90;;;;;;5027731;28;20068;-58
2023/08/15 03:39:23;;;;;;;10.00;9.07;;;18.90;99.90;;;;;;5027948;28;20036;-59
2023/08/15 03:41:48;;;;;;;10.40;9.50;;;18.90;99.90;;;;;;5025663;28;20135;-59
2023/08/15 03:44:14;;;;;;;9.80;8.88;;;18.90;99.90;;;;;;5029560;28;20053;-57
2023/08/15 03:46:40;;;;;;;9.57;8.60;;;18.90;99.90;;;;;;5026751;28;20515;-59
2023/08/15 03:49:06;;;;;;;10.23;9.23;;;18.80;99.90;;;;;;5030695;28;20033;-57
2023/08/15 03:51:32;;;;;;;10.70;7.95;;;18.80;99.90;;;;;;5029974;28;20489;-57
2023/08/15 03:53:58;;;;;;;8.90;7.53;;;18.90;99.90;;;;;;5030782;28;20032;-57
2023/08/15 03:56:24;;;;;;;11.70;8.88;;;18.90;99.90;;;;;;5036414;28;20112;-58
2023/08/15 03:58:49;;;;;;;14.23;9.10;;;18.90;99.90;;;;;;5024272;28;20063;-58
2023/08/15 04:01:15;;;;;;;9.88;8.85;;;18.90;99.90;;;;;;5023560;28;20042;-60
2023/08/15 04:03:40;;;;;;;12.75;9.27;;;18.90;99.90;;;;;;5031847;28;20026;-58
2023/08/15 04:06:06;;;;;;;9.43;8.52;;;18.90;99.90;;;;;;5034711;28;20477;-58
2023/08/15 04:08:32;;;;;;;12.13;8.25;;;18.80;99.90;;;;;;5033131;28;20398;-57
2023/08/15 04:10:57;;;;;;;12.80;8.00;;;18.70;99.90;;;;;;5031940;28;20052;-59
2023/08/15 04:13:23;;;;;;;8.68;7.88;;;18.70;99.90;;;;;;5025594;28;20525;-58
2023/08/15 04:15:49;;;;;;;13.32;7.28;;;18.70;99.90;;;;;;5028149;28;20033;-56
2023/08/15 04:18:14;;;;;;;6.63;6.00;;;18.60;99.90;;;;;;5026687;28;20029;-59
2023/08/15 04:20:42;;;;;;;6.72;6.10;;;18.50;99.90;;;;;;5025369;28;20045;-59
2023/08/15 04:23:08;;;;;;;7.97;7.32;;;18.40;99.90;;;;;;5027324;28;20025;-57
2023/08/15 04:25:35;;;;;;;7.05;6.55;;;18.40;99.90;;;;;;5024975;28;20033;-57
2023/08/15 04:28:01;;;;;;;7.25;6.75;;;18.30;99.90;;;;;;5027401;28;20033;-59
2023/08/15 04:30:29;;;;;;;11.13;7.20;;;18.30;99.90;;;;;;5028271;28;20026;-59
2023/08/15 04:32:55;;;;;;;7.32;6.55;;;18.30;99.90;;;;;;5029346;28;20342;-58
2023/08/15 04:35:22;;;;;;;7.97;7.18;;;18.30;99.90;;;;;;5027071;28;20021;-59
2023/08/15 04:37:47;;;;;;;8.07;7.40;;;18.30;99.90;;;;;;5028598;28;20121;-57
2023/08/15 04:40:13;;;;;;;7.57;7.00;;;18.30;99.90;;;;;;5028010;28;20121;-59
2023/08/15 04:42:40;;;;;;;8.60;7.10;;;18.30;99.90;;;;;;5029939;28;20088;-59
2023/08/15 04:45:06;;;;;;;7.47;6.63;;;18.40;99.90;;;;;;5022212;28;20029;-58
2023/08/15 04:47:32;;;;;;;7.78;6.30;;;18.40;99.90;;;;;;5023695;28;20017;-60
2023/08/15 04:49:58;;;;;;;18.65;7.07;;;18.50;99.90;;;;;;5029014;28;20105;-57
2023/08/15 04:52:25;;;;;;;8.98;8.27;;;18.50;99.90;;;;;;5029466;28;20064;-58
2023/08/15 04:54:51;;;;;;;8.30;7.70;;;18.50;99.90;;;;;;5026144;28;20496;-60
2023/08/15 04:57:16;;;;;;;8.43;7.82;;;18.60;99.90;;;;;;5026240;28;20100;-59
2023/08/15 04:59:42;;;;;;;10.35;8.50;;;18.60;99.90;;;;;;5034494;28;20056;-59
2023/08/15 05:02:07;;;;;;;9.82;9.02;;;18.70;99.90;;;;;;5021496;28;20087;-57
2023/08/15 05:04:33;;;;;;;8.88;8.27;;;18.70;99.90;;;;;;5025900;28;20045;-58
2023/08/15 05:07:00;;;;;;;9.38;8.55;;;18.70;99.90;;;;;;5021704;28;20045;-58
2023/08/15 05:09:28;;;;;;;9.85;9.02;;;18.80;99.90;;;;;;5022704;28;20034;-58
2023/08/15 05:11:54;;;;;;;9.35;8.63;;;18.80;99.90;;;;;;5024105;28;20033;-59
2023/08/15 05:14:20;;;;;;;9.02;8.23;;;18.90;99.90;;;;;;5021122;28;20021;-60
2023/08/15 05:16:45;;;;;;;9.65;8.85;;;18.90;99.90;;;;;;5023932;28;20104;-59
2023/08/15 05:19:11;;;;;;;8.77;8.07;;;18.90;99.90;;;;;;5027180;28;20113;-57
2023/08/15 05:21:36;;;;;;;9.75;9.02;;;19.00;99.90;;;;;;5023913;28;20076;-59
2023/08/15 05:24:02;;;;;;;9.93;8.93;;;19.10;99.90;;;;;;5028200;28;20041;-60
2023/08/15 05:26:28;;;;;;;10.20;9.40;;;19.10;99.90;;;;;;5023635;28;20943;-58
2023/08/15 05:28:53;;;;;;;13.65;9.70;;;19.20;99.90;;;;;;5028454;28;20029;-58
2023/08/15 05:31:19;;;;;;;12.10;10.90;;;19.30;99.90;;;;;;5025693;28;20063;-58
2023/08/15 05:33:45;;;;;;;9.82;9.02;;;19.40;99.90;;;;;;5026237;28;20112;-58
2023/08/15 05:36:11;;;;;;;10.50;9.35;;;19.60;99.90;;;;;;5022034;28;20100;-59
2023/08/15 05:38:37;;;;;;;9.55;8.70;;;19.70;99.90;;;;;;5019883;28;20133;-59
2023/08/15 05:41:02;;;;;;;10.02;8.63;;;19.90;99.90;;;;;;5020956;28;20026;-59
2023/08/15 05:43:28;;;;;;;9.27;8.48;;;19.90;99.90;;;;;;5023096;28;20037;-61
2023/08/15 05:45:53;;;;;;;9.50;8.73;;;20.00;99.90;;;;;;5027221;28;20030;-57
2023/08/15 05:48:19;;;;;;;10.02;9.23;;;20.00;99.90;;;;;;5030021;28;20420;-58
2023/08/15 05:50:45;;;;;;;9.52;8.82;;;20.10;99.90;;;;;;5023360;28;20036;-59
2023/08/15 05:53:11;;;;;;;10.38;9.50;;;20.10;99.90;;;;;;5028683;28;20107;-59
2023/08/15 05:55:37;;;;;;;8.98;8.27;;;20.20;99.90;;;;;;5026067;28;20061;-60
2023/08/15 05:58:03;;;;;;;9.65;8.50;;;20.20;99.90;;;;;;5024381;28;20120;-59
2023/08/15 06:00:28;;;;;;;10.88;8.80;;;20.40;99.90;;;;;;5027840;28;20113;-58
2023/08/15 06:02:54;;;;;;;8.65;7.82;;;20.60;99.90;;;;;;5025363;28;20081;-59
2023/08/15 06:05:21;;;;;;;8.23;7.63;;;20.80;99.90;;;;;;5024304;28;20169;-59
2023/08/15 06:07:47;;;;;;;8.27;7.68;;;21.00;99.90;;;;;;5032418;28;20033;-58
2023/08/15 06:10:13;;;;;;;18.63;7.50;;;21.10;99.90;;;;;;5023760;28;20061;-59
2023/08/15 06:12:39;;;;;;;7.15;6.65;;;21.20;99.90;;;;;;5020668;28;20037;-58
2023/08/15 06:15:05;;;;;;;7.82;7.13;;;21.30;99.90;;;;;;5028224;28;20100;-60
2023/08/15 06:17:31;;;;;;;8.05;7.32;;;21.40;99.90;;;;;;5030377;28;20026;-58
2023/08/15 06:19:56;;;;;;;8.18;6.70;;;21.40;99.90;;;;;;5034257;28;20439;-57
2023/08/15 06:22:22;;;;;;;9.02;6.20;;;21.50;99.90;;;;;;5028389;28;20068;-58
2023/08/15 06:24:48;;;;;;;7.82;7.03;;;21.50;99.90;;;;;;5034347;28;20040;-59
2023/08/15 06:27:13;;;;;;;7.07;6.30;;;21.70;99.90;;;;;;5034861;28;20021;-58
2023/08/15 06:29:39;;;;;;;7.13;6.55;;;21.70;99.90;;;;;;5025012;28;20682;-59
2023/08/15 06:32:06;;;;;;;10.52;6.95;;;21.80;99.90;;;;;;5033528;28;20030;-61
2023/08/15 06:34:32;;;;;;;7.95;5.72;;;22.00;99.90;;;;;;5033608;28;20037;-60
2023/08/15 06:36:57;;;;;;;6.72;6.03;;;22.10;99.90;;;;;;5036129;28;20390;-59
2023/08/15 06:39:23;;;;;;;6.25;5.82;;;22.20;99.90;;;;;;5036605;28;20128;-59
2023/08/15 06:41:49;;;;;;;7.75;6.20;;;22.30;99.90;;;;;;5027756;28;20063;-59
2023/08/15 06:44:14;;;;;;;6.78;6.18;;;22.50;99.90;;;;;;5027230;28;20115;-60
2023/08/15 06:46:40;;;;;;;6.85;6.30;;;22.60;99.90;;;;;;5026875;28;20037;-60
2023/08/15 06:49:06;;;;;;;6.32;5.72;;;22.60;99.90;;;;;;5031227;28;20502;-59
2023/08/15 06:51:32;;;;;;;6.22;5.63;;;22.70;99.90;;;;;;5030162;28;20034;-59
2023/08/15 06:53:57;;;;;;;6.20;5.70;;;22.80;99.90;;;;;;5027921;28;20029;-59
2023/08/15 06:56:23;;;;;;;6.88;6.28;;;22.90;99.90;;;;;;5028641;28;20017;-58
2023/08/15 06:58:49;;;;;;;10.68;6.68;;;23.00;99.90;;;;;;5026297;28;20117;-59
2023/08/15 07:01:14;;;;;;;8.02;6.38;;;23.20;99.90;;;;;;5027043;28;20111;-59
2023/08/15 07:03:40;;;;;;;7.90;5.60;;;23.30;99.90;;;;;;5026733;28;20018;-60
2023/08/15 07:06:05;;;;;;;11.07;6.10;;;23.50;99.90;;;;;;5023700;28;20795;-59
2023/08/15 07:08:31;;;;;;;7.13;6.25;;;23.60;99.90;;;;;;5030026;28;20056;-57
2023/08/15 07:10:58;;;;;;;7.68;5.30;;;23.80;99.90;;;;;;5029929;28;20029;-60
2023/08/15 07:13:24;;;;;;;6.47;5.82;;;23.90;99.90;;;;;;5026922;28;20393;-60
2023/08/15 07:15:57;;;;;;;7.03;5.60;;;24.10;99.90;;;;;;5025700;28;20056;-59
2023/08/15 07:18:23;;;;;;;6.55;6.05;;;24.30;99.90;;;;;;5024420;28;20487;-59
2023/08/15 07:20:50;;;;;;;7.00;6.40;;;24.30;99.90;;;;;;5032245;28;20079;-59
2023/08/15 07:23:20;;;;;;;6.93;6.00;;;24.30;99.90;;;;;;5031211;28;20112;-59
2023/08/15 07:25:46;;;;;;;9.40;6.38;;;24.30;99.90;;;;;;5028565;28;20038;-60
2023/08/15 07:28:12;;;;;;;7.45;6.10;;;24.30;99.90;;;;;;5032648;28;20029;-59
2023/08/15 07:30:38;;;;;;;6.13;5.63;;;24.40;99.90;;;;;;5027748;28;20396;-59
2023/08/15 07:33:04;;;;;;;7.35;5.85;;;24.30;99.90;;;;;;5026893;28;20032;-58
2023/08/15 07:35:29;;;;;;;6.47;5.88;;;24.30;99.90;;;;;;5036841;28;20025;-59
2023/08/15 07:37:55;;;;;;;7.50;6.93;;;24.30;99.90;;;;;;5030708;28;20053;-60
2023/08/15 07:40:21;;;;;;;8.73;6.35;;;24.20;99.90;;;;;;5030010;28;20060;-60
2023/08/15 07:42:53;;;;;;;5.85;5.40;;;24.30;99.90;;;;;;5024312;28;20144;-59
2023/08/15 07:45:21;;;;;;;6.63;5.97;;;24.30;99.90;;;;;;5019169;28;20033;-60
2023/08/15 07:47:51;;;;;;;7.07;6.45;;;24.30;99.90;;;;;;5029142;28;20060;-59
2023/08/15 07:50:22;;;;;;;7.15;6.50;;;24.40;99.90;;;;;;5027439;28;20582;-60
2023/08/15 07:52:49;;;;;;;6.88;6.28;;;24.50;99.90;;;;;;5012636;28;20030;-58
2023/08/15 07:55:15;;;;;;;9.05;6.68;;;24.50;99.90;;;;;;5010054;28;20112;-60
2023/08/15 07:57:43;;;;;;;6.85;6.15;;;24.60;99.90;;;;;;5008211;28;20038;-58
2023/08/15 08:00:10;;;;;;;6.82;6.25;;;24.60;99.90;;;;;;5005175;28;20037;-60
2023/08/15 08:02:36;;;;;;;7.13;6.53;;;24.80;99.90;;;;;;5011625;28;20032;-62
2023/08/15 08:05:03;;;;;;;7.82;6.68;;;24.80;99.90;;;;;;5002019;28;20034;-59
2023/08/15 08:07:28;;;;;;;7.10;6.40;;;24.90;99.90;;;;;;5019612;28;20031;-59
2023/08/15 08:09:54;;;;;;;7.15;6.43;;;25.10;99.90;;;;;;5019721;28;20394;-58
2023/08/15 08:12:20;;;;;;;8.52;6.60;;;25.20;99.90;;;;;;5026538;28;20025;-59
2023/08/15 08:14:45;;;;;;;5.95;5.50;;;25.40;99.90;;;;;;5025989;28;20025;-57
2023/08/15 08:17:11;;;;;;;6.10;5.50;;;25.60;99.90;;;;;;5025342;28;20037;-58
2023/08/15 08:19:36;;;;;;;7.00;6.40;;;25.80;99.90;;;;;;5017394;28;20036;-58
2023/08/15 08:22:02;;;;;;;8.43;6.78;;;25.80;99.90;;;;;;5024833;28;20084;-58
2023/08/15 08:24:28;;;;;;;6.35;5.78;;;25.80;99.90;;;;;;5023014;28;20405;-59
2023/08/15 08:26:53;;;;;;;6.57;5.97;;;25.90;99.90;;;;;;5024841;28;20041;-57
2023/08/15 08:29:19;;;;;;;6.55;5.97;;;25.90;99.90;;;;;;5026427;28;20426;-60
2023/08/15 08:31:44;;;;;;;6.18;5.63;;;25.90;99.90;;;;;;5025699;28;20041;-61
2023/08/15 08:34:19;;;;;;;6.32;5.82;;;26.00;99.90;;;;;;5023885;28;20040;-60
2023/08/15 08:36:45;;;;;;;8.57;5.88;;;26.00;99.90;;;;;;5027930;28;20033;-58
2023/08/15 08:39:11;;;;;;;6.38;5.85;;;26.10;99.90;;;;;;5026270;28;20034;-59
2023/08/15 08:41:37;;;;;;;5.47;5.00;;;26.20;99.90;;;;;;5026300;28;20071;-60
2023/08/15 08:44:03;;;;;;;6.07;4.68;;;26.30;99.90;;;;;;5023720;28;20049;-60
2023/08/15 08:46:29;;;;;;;4.85;4.45;;;26.50;99.90;;;;;;5026275;28;20068;-59
2023/08/15 08:48:59;;;;;;;5.32;4.18;;;26.70;99.90;;;;;;5025323;28;20029;-60
2023/08/15 08:51:25;;;;;;;4.55;4.13;;;27.00;99.90;;;;;;5030518;28;20109;-58
2023/08/15 08:53:51;;;;;;;6.32;5.68;;;27.20;99.90;;;;;;5026038;28;20025;-59
2023/08/15 08:56:25;;;;;;;9.32;4.70;;;27.40;99.90;;;;;;5030254;28;20033;-60
2023/08/15 08:59:00;;;;;;;8.43;5.07;;;27.60;99.90;;;;;;5024542;28;20029;-61
2023/08/15 09:01:29;;;;;;;6.28;5.13;;;27.80;99.90;;;;;;5030865;28;20033;-59
2023/08/15 09:03:55;;;;;;;8.23;5.50;;;27.90;99.90;;;;;;5029193;28;20109;-60
2023/08/15 09:06:22;;;;;;;6.95;5.47;;;28.00;99.90;;;;;;5028081;28;20152;-61
2023/08/15 09:08:48;;;;;;;11.57;5.55;;;28.10;99.90;;;;;;5028807;28;20074;-59
2023/08/15 09:11:13;;;;;;;9.30;5.40;;;28.10;99.90;;;;;;5029637;28;20053;-59
2023/08/15 09:13:52;;;;;;;7.15;5.15;;;28.00;99.90;;;;;;5025196;28;20036;-60
2023/08/15 09:16:17;;;;;;;6.28;5.78;;;28.10;99.90;;;;;;5034447;28;20037;-60
2023/08/15 09:18:46;;;;;;;5.28;4.78;;;28.20;99.90;;;;;;5023562;28;20526;-60
2023/08/15 09:21:13;;;;;;;5.45;4.57;;;28.60;99.90;;;;;;5027600;28;20390;-59
2023/08/15 09:23:41;;;;;;;8.10;4.60;;;28.70;99.90;;;;;;5030708;28;20028;-60
2023/08/15 09:26:16;;;;;;;6.10;4.57;;;28.80;99.90;;;;;;5027250;28;20104;-61
2023/08/15 09:28:42;;;;;;;5.03;4.60;;;28.90;99.90;;;;;;5030138;28;20029;-61
2023/08/15 09:31:10;;;;;;;3.97;3.67;;;28.90;99.90;;;;;;5030434;28;20022;-58
2023/08/15 09:33:40;;;;;;;4.95;4.55;;;28.90;99.90;;;;;;5029540;28;20032;-61
2023/08/15 09:36:06;;;;;;;9.23;4.45;;;28.90;99.90;;;;;;5022720;28;20030;-57
2023/08/15 09:38:32;;;;;;;5.75;4.45;;;28.70;99.90;;;;;;5030227;28;20394;-61
2023/08/15 09:40:59;;;;;;;6.13;4.90;;;28.50;99.90;;;;;;5023209;28;20034;-57
2023/08/15 09:43:25;;;;;;;5.70;5.28;;;28.40;99.90;;;;;;5025457;28;20052;-59
2023/08/15 09:45:52;;;;;;;5.28;4.88;;;28.40;99.90;;;;;;5023805;28;20030;-58
2023/08/15 09:48:18;;;;;;;7.63;4.35;;;28.50;99.90;;;;;;5029771;28;20047;-60
2023/08/15 09:50:45;;;;;;;7.55;4.35;;;28.50;99.90;;;;;;5032315;28;20371;-60
2023/08/15 09:53:11;;;;;;;5.10;4.68;;;28.40;99.90;;;;;;5030337;28;20021;-61
2023/08/15 09:55:39;;;;;;;6.85;4.47;;;28.40;99.90;;;;;;5032370;28;20520;-57
2023/08/15 09:58:05;;;;;;;5.38;4.88;;;28.30;99.90;;;;;;5031669;28;20205;-59
2023/08/15 10:00:31;;;;;;;5.20;4.80;;;28.30;99.90;;;;;;5029468;28;20076;-59
2023/08/15 10:03:23;;;;;;;5.38;4.97;;;28.40;99.90;;;;;;5030859;28;20474;-58
2023/08/15 10:05:54;;;;;;;5.07;4.68;;;28.60;99.90;;;;;;5022331;28;20120;-59
2023/08/15 10:08:20;;;;;;;5.28;4.82;;;28.80;99.90;;;;;;5033664;28;20037;-57
2023/08/15 10:10:50;;;;;;;5.57;5.18;;;29.00;99.90;;;;;;5033780;28;20032;-59
2023/08/15 10:13:18;;;;;;;6.07;5.15;;;29.20;99.90;;;;;;5029976;28;20029;-61
2023/08/15 10:15:45;;;;;;;8.98;4.75;;;29.30;99.90;;;;;;5030393;28;20103;-60
2023/08/15 10:18:11;;;;;;;4.78;4.38;;;29.40;99.90;;;;;;5029488;28;20033;-59
2023/08/15 10:20:37;;;;;;;5.00;4.60;;;29.40;99.90;;;;;;5029965;28;20037;-59
2023/08/15 10:23:07;;;;;;;5.03;4.63;;;29.60;99.90;;;;;;5030145;28;20075;-59
2023/08/15 10:25:35;;;;;;;4.63;4.00;;;29.70;99.90;;;;;;5033864;28;20026;-60
2023/08/15 10:28:07;;;;;;;4.97;4.47;;;29.90;99.90;;;;;;5031659;28;20072;-58
2023/08/15 10:30:44;;;;;;;5.07;4.63;;;30.10;99.90;;;;;;5034853;28;20017;-58
2023/08/15 10:33:13;;;;;;;5.07;4.68;;;30.30;99.90;;;;;;5027557;28;20036;-60
2023/08/15 10:35:54;;;;;;;5.45;4.97;;;30.30;99.90;;;;;;5025951;28;20082;-59
2023/08/15 10:38:43;;;;;;;4.53;4.13;;;30.20;99.90;;;;;;5000455;28;20053;-61
2023/08/15 10:41:15;;;;;;;4.50;4.20;;;30.20;99.90;;;;;;5013968;28;20084;-59
2023/08/15 10:43:47;;;;;;;4.95;4.55;;;30.50;99.90;;;;;;5019520;28;20061;-59
2023/08/15 10:46:12;;;;;;;6.03;4.45;;;30.60;99.90;;;;;;5005259;28;20089;-60
2023/08/15 10:48:54;;;;;;;4.32;3.92;;;30.70;99.90;;;;;;5011277;28;20034;-58
2023/08/15 10:51:31;;;;;;;4.82;4.30;;;30.80;99.90;;;;;;5029075;28;20022;-60
2023/08/15 10:53:59;;;;;;;4.32;3.92;;;30.90;99.90;;;;;;5027847;28;20052;-61
2023/08/15 10:56:30;;;;;;;4.32;3.92;;;30.80;99.90;;;;;;5030603;28;20120;-59
2023/08/15 10:58:57;;;;;;;5.63;4.00;;;30.90;99.90;;;;;;5036698;28;20061;-58
2023/08/15 11:01:27;;;;;;;5.22;3.80;;;30.80;99.90;;;;;;5025559;28;20514;-59
2023/08/15 11:03:55;;;;;;;4.63;4.07;;;30.80;99.90;;;;;;5035122;28;20112;-58
2023/08/15 11:06:21;;;;;;;4.60;4.18;;;30.80;99.90;;;;;;5029145;28;20072;-61
2023/08/15 11:08:49;;;;;;;7.65;3.88;;;30.80;99.90;;;;;;5029112;28;20433;-60
2023/08/15 11:11:16;;;;;;;4.50;4.13;;;30.80;99.90;;;;;;5026377;28;20037;-60
2023/08/15 11:13:47;;;;;;;4.28;3.97;;;30.90;99.90;;;;;;5029796;28;20124;-61
2023/08/15 11:16:17;;;;;;;4.28;3.97;;;31.00;99.90;;;;;;5028657;28;20060;-59
2023/08/15 11:18:44;;;;;;;4.63;4.32;;;30.90;99.90;;;;;;5025118;28;20565;-60
2023/08/15 11:21:11;;;;;;;7.55;3.92;;;30.80;99.90;;;;;;5022703;28;20382;-59
2023/08/15 11:23:37;;;;;;;4.93;3.70;;;30.60;99.90;;;;;;5025131;28;20079;-59
2023/08/15 11:26:05;;;;;;;8.95;4.65;;;30.40;99.90;;;;;;5026305;28;20765;-58
2023/08/15 11:28:31;;;;;;;4.15;3.75;;;30.30;99.90;;;;;;5030058;28;20800;-61
2023/08/15 11:31:02;;;;;;;5.03;4.40;;;30.00;99.90;;;;;;5027653;28;20880;-59
2023/08/15 11:33:31;;;;;;;4.70;4.07;;;29.80;99.90;;;;;;5031745;28;20026;-59
2023/08/15 11:36:05;;;;;;;4.72;3.70;;;29.70;99.90;;;;;;5027682;28;20117;-59
2023/08/15 11:38:32;;;;;;;4.35;3.65;;;29.60;99.90;;;;;;5028377;28;20029;-58
2023/08/15 11:40:59;;;;;;;4.78;4.35;;;29.60;99.90;;;;;;5028998;28;20072;-59
2023/08/15 11:43:28;;;;;;;7.97;4.60;;;29.70;99.90;;;;;;5028716;28;20075;-58
2023/08/15 11:45:54;;;;;;;4.82;4.43;;;29.90;99.90;;;;;;5027881;28;20030;-59
2023/08/15 11:48:20;;;;;;;4.88;4.28;;;30.00;99.90;;;;;;5029525;28;20034;-60
2023/08/15 11:50:46;;;;;;;5.68;4.32;;;30.10;99.90;;;;;;5032172;28;20506;-60
2023/08/15 11:53:17;;;;;;;6.50;4.70;;;30.20;99.90;;;;;;5028751;28;20034;-60
2023/08/15 11:55:44;;;;;;;5.53;4.45;;;30.20;99.90;;;;;;5029263;28;20080;-58
2023/08/15 11:58:28;;;;;;;7.05;4.00;;;30.20;99.90;;;;;;5033249;28;20525;-60
2023/08/15 12:01:06;;;;;;;5.47;4.50;;;30.20;99.90;;;;;;5030569;28;20032;-60
2023/08/15 12:03:33;;;;;;;6.47;4.53;;;30.10;99.90;;;;;;5028853;28;20057;-60
2023/08/15 12:06:06;;;;;;;7.05;4.38;;;30.10;99.90;;;;;;5027792;28;20752;-58
2023/08/15 12:08:32;;;;;;;6.43;5.10;;;30.00;99.90;;;;;;5030427;28;20482;-59
2023/08/15 12:11:06;;;;;;;5.30;4.03;;;30.10;99.90;;;;;;5030838;28;20033;-58
2023/08/15 12:13:34;;;;;;;4.80;4.38;;;30.10;99.90;;;;;;5032929;28;20804;-61
2023/08/15 12:16:02;;;;;;;6.55;3.95;;;30.00;99.90;;;;;;5022845;28;20038;-61
2023/08/15 12:18:28;;;;;;;7.05;4.25;;;30.00;99.90;;;;;;5027837;28;20060;-59
2023/08/15 12:20:55;;;;;;;5.55;4.82;;;30.00;99.90;;;;;;5028032;28;20041;-58
2023/08/15 12:23:20;;;;;;;5.30;4.10;;;29.90;99.90;;;;;;5027040;28;20034;-58
2023/08/15 12:25:46;;;;;;;6.60;4.55;;;30.00;99.90;;;;;;5026957;28;20021;-59
2023/08/15 12:28:12;;;;;;;5.60;4.30;;;29.90;99.90;;;;;;5026689;28;20490;-59
2023/08/15 12:30:38;;;;;;;4.72;4.35;;;29.80;99.90;;;;;;5021954;28;20025;-60
2023/08/15 12:33:05;;;;;;;4.88;4.35;;;29.80;99.90;;;;;;5026077;28;20025;-58
2023/08/15 12:35:32;;;;;;;5.20;4.63;;;30.00;99.90;;;;;;5026176;28;20486;-61
2023/08/15 12:37:58;;;;;;;8.07;4.78;;;30.20;99.90;;;;;;5027796;28;20041;-60
2023/08/15 12:40:24;;;;;;;4.90;4.45;;;30.20;99.90;;;;;;5028240;28;20037;-59
2023/08/15 12:42:49;;;;;;;7.43;4.38;;;30.30;99.90;;;;;;5027213;28;20029;-59
2023/08/15 12:45:15;;;;;;;4.40;3.97;;;30.20;99.90;;;;;;5026379;28;20527;-60